sensor_id;sensor_type;location;lat;lon;timestamp;pressure;altitude;pressure_sealevel;temperature;humidity
22649;BME280;11491;41.942;24.220;2022-10-31T00:02:06;90277.63;;;6.77;75.60
22649;BME280;11491;41.942;24.220;2022-10-31T00:04:33;90326.59;;;7.02;76.19
22649;BME280;11491;41.942;24.220;2022-10-31T00:07:00;90364.34;;;7.39;75.69
22649;BME280;11491;41.942;24.220;2022-10-31T00:09:28;90372.94;;;7.36;75.94
22649;BME280;11491;41.942;24.220;2022-10-31T00:11:55;90356.97;;;7.36;75.55
22649;BME280;11491;41.942;24.220;2022-10-31T00:14:22;90348.50;;;7.17;75.37
22649;BME280;11491;41.942;24.220;2022-10-31T00:16:49;90346.97;;;7.16;75.17
22649;BME280;11491;41.942;24.220;2022-10-31T00:19:16;90312.66;;;6.79;76.73
22649;BME280;11491;41.942;24.220;2022-10-31T00:21:42;90305.78;;;6.87;76.86
22649;BME280;11491;41.942;24.220;2022-10-31T00:24:10;90333.50;;;7.03;76.50
22649;BME280;11491;41.942;24.220;2022-10-31T00:26:38;90367.00;;;7.39;76.34
22649;BME280;11491;41.942;24.220;2022-10-31T00:29:05;90371.22;;;7.40;76.69
22649;BME280;11491;41.942;24.220;2022-10-31T00:31:32;90366.34;;;7.42;76.81
22649;BME280;11491;41.942;24.220;2022-10-31T00:33:58;90366.03;;;7.52;76.55
22649;BME280;11491;41.942;24.220;2022-10-31T00:36:28;90311.75;;;7.19;76.88
22649;BME280;11491;41.942;24.220;2022-10-31T00:38:55;90350.09;;;7.52;76.97
22649;BME280;11491;41.942;24.220;2022-10-31T00:41:21;90365.91;;;7.66;77.13
22649;BME280;11491;41.942;24.220;2022-10-31T00:43:50;90363.84;;;7.72;77.39
22649;BME280;11491;41.942;24.220;2022-10-31T00:46:16;90368.69;;;7.70;77.14
22649;BME280;11491;41.942;24.220;2022-10-31T00:48:43;90354.78;;;7.73;77.04
22649;BME280;11491;41.942;24.220;2022-10-31T00:51:10;90361.81;;;7.95;76.85
22649;BME280;11491;41.942;24.220;2022-10-31T00:53:37;90361.00;;;7.94;76.38
22649;BME280;11491;41.942;24.220;2022-10-31T00:56:05;90350.69;;;7.84;77.08
22649;BME280;11491;41.942;24.220;2022-10-31T00:58:32;90371.03;;;8.15;76.45
22649;BME280;11491;41.942;24.220;2022-10-31T01:01:00;90365.34;;;8.25;75.62
22649;BME280;11491;41.942;24.220;2022-10-31T01:03:29;90310.94;;;7.79;75.79
22649;BME280;11491;41.942;24.220;2022-10-31T01:06:00;90318.75;;;7.84;75.55
22649;BME280;11491;41.942;24.220;2022-10-31T01:08:30;90338.78;;;7.90;75.85
22649;BME280;11491;41.942;24.220;2022-10-31T01:11:06;90336.31;;;7.85;75.92
22649;BME280;11491;41.942;24.220;2022-10-31T01:13:34;90356.63;;;7.98;76.20
22649;BME280;11491;41.942;24.220;2022-10-31T01:16:03;90358.66;;;8.10;76.08
22649;BME280;11491;41.942;24.220;2022-10-31T01:18:31;90337.38;;;7.93;76.53
22649;BME280;11491;41.942;24.220;2022-10-31T01:20:59;90352.41;;;7.97;76.22
22649;BME280;11491;41.942;24.220;2022-10-31T01:23:27;90365.38;;;7.99;76.73
22649;BME280;11491;41.942;24.220;2022-10-31T01:26:06;90350.19;;;8.08;76.36
22649;BME280;11491;41.942;24.220;2022-10-31T01:28:33;90355.34;;;8.05;76.50
22649;BME280;11491;41.942;24.220;2022-10-31T01:31:03;90360.38;;;8.06;76.98
22649;BME280;11491;41.942;24.220;2022-10-31T01:33:31;90354.25;;;8.06;76.63
22649;BME280;11491;41.942;24.220;2022-10-31T01:35:58;90357.22;;;8.13;76.44
22649;BME280;11491;41.942;24.220;2022-10-31T01:38:25;90360.97;;;8.12;76.37
22649;BME280;11491;41.942;24.220;2022-10-31T01:40:52;90355.34;;;8.05;76.54
22649;BME280;11491;41.942;24.220;2022-10-31T01:43:19;90351.44;;;8.02;77.27
22649;BME280;11491;41.942;24.220;2022-10-31T01:45:50;90351.56;;;8.14;77.10
22649;BME280;11491;41.942;24.220;2022-10-31T01:48:24;90357.78;;;8.27;77.46
22649;BME280;11491;41.942;24.220;2022-10-31T01:50:56;90358.44;;;8.24;77.46
22649;BME280;11491;41.942;24.220;2022-10-31T01:53:23;90356.88;;;8.23;77.57
22649;BME280;11491;41.942;24.220;2022-10-31T01:55:50;90361.56;;;8.26;77.71
22649;BME280;11491;41.942;24.220;2022-10-31T01:58:21;90364.06;;;8.31;77.67
22649;BME280;11491;41.942;24.220;2022-10-31T02:00:51;90349.47;;;8.46;77.17
22649;BME280;11491;41.942;24.220;2022-10-31T02:03:21;90343.38;;;8.46;77.12
22649;BME280;11491;41.942;24.220;2022-10-31T02:05:49;90347.13;;;8.45;76.58
22649;BME280;11491;41.942;24.220;2022-10-31T02:08:19;90364.69;;;8.46;76.63
22649;BME280;11491;41.942;24.220;2022-10-31T02:10:48;90363.75;;;8.41;76.79
22649;BME280;11491;41.942;24.220;2022-10-31T02:13:17;90359.66;;;8.53;76.77
22649;BME280;11491;41.942;24.220;2022-10-31T02:15:47;90361.56;;;8.44;77.24
22649;BME280;11491;41.942;24.220;2022-10-31T02:18:16;90282.22;;;8.02;77.24
22649;BME280;11491;41.942;24.220;2022-10-31T02:20:52;90360.84;;;8.64;76.80
22649;BME280;11491;41.942;24.220;2022-10-31T02:26:35;90358.00;;;8.69;77.42
22649;BME280;11491;41.942;24.220;2022-10-31T02:32:18;90365.09;;;8.65;78.03
22649;BME280;11491;41.942;24.220;2022-10-31T02:34:53;90352.25;;;8.58;77.59
22649;BME280;11491;41.942;24.220;2022-10-31T02:37:26;90350.69;;;8.57;78.14
22649;BME280;11491;41.942;24.220;2022-10-31T02:40:05;90354.31;;;8.53;79.27
22649;BME280;11491;41.942;24.220;2022-10-31T02:42:43;90362.06;;;8.75;78.95
22649;BME280;11491;41.942;24.220;2022-10-31T02:45:16;90356.50;;;8.89;78.08
22649;BME280;11491;41.942;24.220;2022-10-31T02:47:48;90358.66;;;8.96;77.68
22649;BME280;11491;41.942;24.220;2022-10-31T02:50:19;90287.50;;;8.58;76.51
22649;BME280;11491;41.942;24.220;2022-10-31T02:52:50;90368.66;;;9.08;76.44
22649;BME280;11491;41.942;24.220;2022-10-31T02:55:46;90375.03;;;9.15;76.24
22649;BME280;11491;41.942;24.220;2022-10-31T02:58:15;90367.03;;;9.15;77.07
22649;BME280;11491;41.942;24.220;2022-10-31T03:00:53;90373.81;;;9.04;77.61
22649;BME280;11491;41.942;24.220;2022-10-31T03:03:26;90370.19;;;9.09;77.98
22649;BME280;11491;41.942;24.220;2022-10-31T03:06:00;90375.31;;;9.22;77.57
22649;BME280;11491;41.942;24.220;2022-10-31T03:08:34;90379.06;;;9.21;77.32
22649;BME280;11491;41.942;24.220;2022-10-31T03:11:03;90371.53;;;9.23;76.78
22649;BME280;11491;41.942;24.220;2022-10-31T03:13:35;90378.72;;;9.32;76.31
22649;BME280;11491;41.942;24.220;2022-10-31T03:16:09;90369.09;;;9.39;75.81
22649;BME280;11491;41.942;24.220;2022-10-31T03:18:40;90351.88;;;9.28;75.84
22649;BME280;11491;41.942;24.220;2022-10-31T03:21:13;90373.44;;;9.44;75.98
22649;BME280;11491;41.942;24.220;2022-10-31T03:23:42;90378.47;;;9.45;76.04
22649;BME280;11491;41.942;24.220;2022-10-31T03:26:12;90372.81;;;9.47;76.08
22649;BME280;11491;41.942;24.220;2022-10-31T03:28:46;90366.47;;;9.31;76.48
22649;BME280;11491;41.942;24.220;2022-10-31T03:31:17;90378.19;;;9.38;76.30
22649;BME280;11491;41.942;24.220;2022-10-31T03:33:47;90375.84;;;9.37;76.19
22649;BME280;11491;41.942;24.220;2022-10-31T03:36:16;90383.28;;;9.52;76.24
22649;BME280;11491;41.942;24.220;2022-10-31T03:38:45;90383.28;;;9.52;75.36
22649;BME280;11491;41.942;24.220;2022-10-31T03:41:16;90386.16;;;9.47;76.00
22649;BME280;11491;41.942;24.220;2022-10-31T03:43:51;90390.19;;;9.53;76.25
22649;BME280;11491;41.942;24.220;2022-10-31T03:46:19;90374.16;;;9.53;76.62
22649;BME280;11491;41.942;24.220;2022-10-31T03:48:47;90385.75;;;9.57;77.11
22649;BME280;11491;41.942;24.220;2022-10-31T03:51:16;90374.88;;;9.62;76.29
22649;BME280;11491;41.942;24.220;2022-10-31T03:53:51;90378.72;;;9.74;76.58
22649;BME280;11491;41.942;24.220;2022-10-31T03:56:22;90377.94;;;9.73;76.48
22649;BME280;11491;41.942;24.220;2022-10-31T03:58:57;90376.25;;;9.68;77.03
22649;BME280;11491;41.942;24.220;2022-10-31T04:01:26;90389.66;;;9.81;76.32
22649;BME280;11491;41.942;24.220;2022-10-31T04:03:57;90390.50;;;9.93;75.66
22649;BME280;11491;41.942;24.220;2022-10-31T04:06:25;90384.97;;;9.78;75.83
22649;BME280;11491;41.942;24.220;2022-10-31T04:08:57;90396.56;;;9.82;76.21
22649;BME280;11491;41.942;24.220;2022-10-31T04:11:28;90390.13;;;9.83;76.06
22649;BME280;11491;41.942;24.220;2022-10-31T04:13:57;90361.16;;;9.73;76.10
22649;BME280;11491;41.942;24.220;2022-10-31T04:16:26;90380.81;;;9.89;76.26
22649;BME280;11491;41.942;24.220;2022-10-31T04:18:53;90393.41;;;10.01;75.98
22649;BME280;11491;41.942;24.220;2022-10-31T04:21:26;90393.56;;;10.04;75.68
22649;BME280;11491;41.942;24.220;2022-10-31T04:23:54;90391.97;;;10.03;76.00
22649;BME280;11491;41.942;24.220;2022-10-31T04:26:21;90399.16;;;10.11;75.79
22649;BME280;11491;41.942;24.220;2022-10-31T04:28:47;90402.66;;;10.03;76.39
22649;BME280;11491;41.942;24.220;2022-10-31T04:31:14;90404.09;;;10.01;76.60
22649;BME280;11491;41.942;24.220;2022-10-31T04:33:41;90374.56;;;9.85;76.92
22649;BME280;11491;41.942;24.220;2022-10-31T04:36:08;90403.13;;;10.05;76.94
22649;BME280;11491;41.942;24.220;2022-10-31T04:38:36;90413.88;;;10.18;76.24
22649;BME280;11491;41.942;24.220;2022-10-31T04:41:03;90367.84;;;9.79;76.19
22649;BME280;11491;41.942;24.220;2022-10-31T04:43:30;90409.59;;;10.04;76.13
22649;BME280;11491;41.942;24.220;2022-10-31T04:45:56;90412.06;;;10.09;76.26
22649;BME280;11491;41.942;24.220;2022-10-31T04:48:24;90413.28;;;10.12;75.93
22649;BME280;11491;41.942;24.220;2022-10-31T04:50:50;90406.47;;;10.02;76.32
22649;BME280;11491;41.942;24.220;2022-10-31T04:53:17;90412.72;;;10.06;77.17
22649;BME280;11491;41.942;24.220;2022-10-31T04:55:45;90411.41;;;10.12;77.07
22649;BME280;11491;41.942;24.220;2022-10-31T04:58:12;90416.75;;;10.12;77.22
22649;BME280;11491;41.942;24.220;2022-10-31T05:00:39;90417.00;;;10.20;77.24
22649;BME280;11491;41.942;24.220;2022-10-31T05:03:05;90424.19;;;10.28;77.61
22649;BME280;11491;41.942;24.220;2022-10-31T05:05:32;90426.34;;;10.26;76.90
22649;BME280;11491;41.942;24.220;2022-10-31T05:07:59;90426.19;;;10.31;77.48
22649;BME280;11491;41.942;24.220;2022-10-31T05:10:28;90428.22;;;10.34;76.90
22649;BME280;11491;41.942;24.220;2022-10-31T05:12:58;90430.81;;;10.43;77.02
22649;BME280;11491;41.942;24.220;2022-10-31T05:15:26;90431.47;;;10.40;76.67
22649;BME280;11491;41.942;24.220;2022-10-31T05:17:53;90431.81;;;10.50;76.47
22649;BME280;11491;41.942;24.220;2022-10-31T05:20:22;90434.06;;;10.48;76.24
22649;BME280;11491;41.942;24.220;2022-10-31T05:22:50;90436.03;;;10.39;76.33
22649;BME280;11491;41.942;24.220;2022-10-31T05:25:18;90432.66;;;10.30;76.42
22649;BME280;11491;41.942;24.220;2022-10-31T05:27:47;90432.66;;;10.30;77.34
22649;BME280;11491;41.942;24.220;2022-10-31T05:30:17;90438.00;;;10.30;77.03
22649;BME280;11491;41.942;24.220;2022-10-31T05:32:47;90445.16;;;10.38;76.33
22649;BME280;11491;41.942;24.220;2022-10-31T05:35:16;90457.41;;;10.39;76.57
22649;BME280;11491;41.942;24.220;2022-10-31T05:37:43;90451.16;;;10.35;77.42
22649;BME280;11491;41.942;24.220;2022-10-31T05:40:12;90450.25;;;10.31;77.33
22649;BME280;11491;41.942;24.220;2022-10-31T05:42:39;90454.53;;;10.44;77.29
22649;BME280;11491;41.942;24.220;2022-10-31T05:45:07;90465.94;;;10.53;77.11
22649;BME280;11491;41.942;24.220;2022-10-31T05:47:36;90457.91;;;10.53;76.86
22649;BME280;11491;41.942;24.220;2022-10-31T05:50:03;90463.31;;;10.66;76.21
22649;BME280;11491;41.942;24.220;2022-10-31T05:52:31;90474.56;;;10.71;76.21
22649;BME280;11491;41.942;24.220;2022-10-31T05:54:58;90473.38;;;10.81;76.06
22649;BME280;11491;41.942;24.220;2022-10-31T05:57:24;90476.47;;;10.71;75.73
22649;BME280;11491;41.942;24.220;2022-10-31T05:59:51;90456.06;;;10.66;75.65
22649;BME280;11491;41.942;24.220;2022-10-31T06:02:19;90488.09;;;10.87;75.74
22649;BME280;11491;41.942;24.220;2022-10-31T06:04:47;90489.34;;;11.02;75.10
22649;BME280;11491;41.942;24.220;2022-10-31T06:07:13;90481.91;;;10.62;76.51
22649;BME280;11491;41.942;24.220;2022-10-31T06:09:40;90482.59;;;10.71;76.84
22649;BME280;11491;41.942;24.220;2022-10-31T06:12:07;90489.69;;;10.88;76.65
22649;BME280;11491;41.942;24.220;2022-10-31T06:14:34;90491.69;;;10.91;76.39
22649;BME280;11491;41.942;24.220;2022-10-31T06:17:00;90492.81;;;11.03;75.80
22649;BME280;11491;41.942;24.220;2022-10-31T06:19:27;90493.25;;;11.05;75.45
22649;BME280;11491;41.942;24.220;2022-10-31T06:21:55;90494.84;;;11.30;75.62
22649;BME280;11491;41.942;24.220;2022-10-31T06:24:22;90500.00;;;11.48;74.48
22649;BME280;11491;41.942;24.220;2022-10-31T06:26:49;90501.03;;;11.55;74.73
22649;BME280;11491;41.942;24.220;2022-10-31T06:29:15;90498.25;;;11.89;74.11
22649;BME280;11491;41.942;24.220;2022-10-31T06:31:42;90498.91;;;12.10;73.74
22649;BME280;11491;41.942;24.220;2022-10-31T06:34:09;90506.66;;;12.40;73.02
22649;BME280;11491;41.942;24.220;2022-10-31T06:36:36;90495.66;;;12.57;72.71
22649;BME280;11491;41.942;24.220;2022-10-31T06:39:04;90493.13;;;12.77;71.57
22649;BME280;11491;41.942;24.220;2022-10-31T06:41:30;90501.50;;;13.03;71.63
22649;BME280;11491;41.942;24.220;2022-10-31T06:43:57;90500.00;;;13.34;71.25
22649;BME280;11491;41.942;24.220;2022-10-31T06:46:24;90493.69;;;13.58;70.41
22649;BME280;11491;41.942;24.220;2022-10-31T06:48:50;90495.75;;;13.81;70.08
22649;BME280;11491;41.942;24.220;2022-10-31T06:51:17;90496.16;;;13.98;68.62
22649;BME280;11491;41.942;24.220;2022-10-31T06:53:44;90489.91;;;14.26;68.07
22649;BME280;11491;41.942;24.220;2022-10-31T06:56:12;90496.44;;;14.44;67.24
22649;BME280;11491;41.942;24.220;2022-10-31T06:58:39;90502.66;;;14.49;66.11
22649;BME280;11491;41.942;24.220;2022-10-31T07:01:05;90491.19;;;14.52;66.78
22649;BME280;11491;41.942;24.220;2022-10-31T07:03:32;90498.03;;;14.84;66.35
22649;BME280;11491;41.942;24.220;2022-10-31T07:06:03;90481.44;;;15.02;64.50
22649;BME280;11491;41.942;24.220;2022-10-31T07:08:32;90493.91;;;15.10;64.84
22649;BME280;11491;41.942;24.220;2022-10-31T07:10:59;90495.03;;;15.28;63.51
22649;BME280;11491;41.942;24.220;2022-10-31T07:13:27;90495.63;;;15.18;61.87
22649;BME280;11491;41.942;24.220;2022-10-31T07:15:58;90500.16;;;15.14;61.95
22649;BME280;11491;41.942;24.220;2022-10-31T07:18:25;90496.31;;;15.15;64.07
22649;BME280;11491;41.942;24.220;2022-10-31T07:20:52;90497.16;;;15.19;63.41
22649;BME280;11491;41.942;24.220;2022-10-31T07:23:19;90496.09;;;15.47;62.87
22649;BME280;11491;41.942;24.220;2022-10-31T07:25:46;90494.41;;;15.81;63.23
22649;BME280;11491;41.942;24.220;2022-10-31T07:28:13;90489.56;;;16.17;60.93
22649;BME280;11491;41.942;24.220;2022-10-31T07:30:41;90479.75;;;16.32;58.44
22649;BME280;11491;41.942;24.220;2022-10-31T07:33:09;90488.88;;;16.50;58.38
22649;BME280;11491;41.942;24.220;2022-10-31T07:35:36;90472.41;;;16.59;57.74
22649;BME280;11491;41.942;24.220;2022-10-31T07:38:10;90489.13;;;16.98;57.88
22649;BME280;11491;41.942;24.220;2022-10-31T07:40:40;90487.16;;;17.29;54.47
22649;BME280;11491;41.942;24.220;2022-10-31T07:43:11;90453.00;;;17.10;54.96
22649;BME280;11491;41.942;24.220;2022-10-31T07:45:40;90461.44;;;17.09;54.83
22649;BME280;11491;41.942;24.220;2022-10-31T07:48:08;90479.22;;;17.10;53.63
22649;BME280;11491;41.942;24.220;2022-10-31T07:50:35;90477.53;;;16.94;54.48
22649;BME280;11491;41.942;24.220;2022-10-31T07:53:03;90478.31;;;16.98;54.74
22649;BME280;11491;41.942;24.220;2022-10-31T07:55:31;90488.69;;;17.27;53.63
22649;BME280;11491;41.942;24.220;2022-10-31T07:57:59;90475.00;;;17.50;52.96
22649;BME280;11491;41.942;24.220;2022-10-31T08:00:26;90476.13;;;17.08;53.61
22649;BME280;11491;41.942;24.220;2022-10-31T08:02:57;90483.38;;;16.73;55.05
22649;BME280;11491;41.942;24.220;2022-10-31T08:05:25;90456.81;;;16.45;55.06
22649;BME280;11491;41.942;24.220;2022-10-31T08:07:52;90477.09;;;16.92;53.96
22649;BME280;11491;41.942;24.220;2022-10-31T08:10:20;90487.50;;;17.65;52.06
22649;BME280;11491;41.942;24.220;2022-10-31T08:12:47;90484.78;;;18.06;52.35
22649;BME280;11491;41.942;24.220;2022-10-31T08:15:14;90486.06;;;18.23;51.22
22649;BME280;11491;41.942;24.220;2022-10-31T08:17:40;90487.41;;;18.47;48.81
22649;BME280;11491;41.942;24.220;2022-10-31T08:20:08;90484.94;;;18.27;49.28
22649;BME280;11491;41.942;24.220;2022-10-31T08:22:36;90490.19;;;18.02;49.63
22649;BME280;11491;41.942;24.220;2022-10-31T08:25:03;90485.38;;;17.44;52.36
22649;BME280;11491;41.942;24.220;2022-10-31T08:27:30;90473.56;;;16.88;53.50
22649;BME280;11491;41.942;24.220;2022-10-31T08:29:57;90484.16;;;16.74;54.46
22649;BME280;11491;41.942;24.220;2022-10-31T08:32:24;90487.16;;;16.65;55.03
22649;BME280;11491;41.942;24.220;2022-10-31T08:34:50;90494.16;;;16.70;55.51
22649;BME280;11491;41.942;24.220;2022-10-31T08:37:17;90499.75;;;16.84;54.27
22649;BME280;11491;41.942;24.220;2022-10-31T08:39:46;90505.94;;;16.85;53.69
22649;BME280;11491;41.942;24.220;2022-10-31T08:42:13;90502.09;;;16.86;54.24
22649;BME280;11491;41.942;24.220;2022-10-31T08:44:40;90496.00;;;16.92;55.06
22649;BME280;11491;41.942;24.220;2022-10-31T08:47:07;90493.78;;;17.01;53.77
22649;BME280;11491;41.942;24.220;2022-10-31T08:49:34;90504.00;;;17.19;56.18
22649;BME280;11491;41.942;24.220;2022-10-31T08:52:00;90501.72;;;17.21;53.86
22649;BME280;11491;41.942;24.220;2022-10-31T08:54:29;90499.84;;;17.25;54.70
22649;BME280;11491;41.942;24.220;2022-10-31T08:56:57;90503.38;;;17.29;54.97
22649;BME280;11491;41.942;24.220;2022-10-31T08:59:24;90500.34;;;17.34;53.61
22649;BME280;11491;41.942;24.220;2022-10-31T09:01:50;90499.50;;;17.64;56.49
22649;BME280;11491;41.942;24.220;2022-10-31T09:04:17;90501.88;;;18.17;52.32
22649;BME280;11491;41.942;24.220;2022-10-31T09:06:44;90491.66;;;19.18;50.69
22649;BME280;11491;41.942;24.220;2022-10-31T09:09:11;90503.75;;;19.52;47.87
22649;BME280;11491;41.942;24.220;2022-10-31T09:11:37;90499.56;;;19.66;48.92
22649;BME280;11491;41.942;24.220;2022-10-31T09:14:05;90501.13;;;19.74;49.20
22649;BME280;11491;41.942;24.220;2022-10-31T09:16:32;90495.16;;;19.22;47.31
22649;BME280;11491;41.942;24.220;2022-10-31T09:18:59;90490.88;;;18.44;48.82
22649;BME280;11491;41.942;24.220;2022-10-31T09:21:26;90502.81;;;17.88;49.61
22649;BME280;11491;41.942;24.220;2022-10-31T09:23:52;90506.25;;;17.84;49.96
22649;BME280;11491;41.942;24.220;2022-10-31T09:26:19;90499.41;;;17.94;49.97
22649;BME280;11491;41.942;24.220;2022-10-31T09:28:46;90507.22;;;18.06;50.52
22649;BME280;11491;41.942;24.220;2022-10-31T09:31:14;90500.81;;;18.29;50.29
22649;BME280;11491;41.942;24.220;2022-10-31T09:33:40;90503.56;;;18.95;48.93
22649;BME280;11491;41.942;24.220;2022-10-31T09:36:08;90497.84;;;19.14;46.93
22649;BME280;11491;41.942;24.220;2022-10-31T09:38:35;90500.81;;;18.88;47.04
22649;BME280;11491;41.942;24.220;2022-10-31T09:41:19;90498.66;;;18.52;48.44
22649;BME280;11491;41.942;24.220;2022-10-31T09:43:55;90508.19;;;18.36;50.39
22649;BME280;11491;41.942;24.220;2022-10-31T09:46:33;90508.19;;;18.32;49.77
22649;BME280;11491;41.942;24.220;2022-10-31T09:49:20;90512.00;;;18.27;49.39
22649;BME280;11491;41.942;24.220;2022-10-31T09:51:53;90511.94;;;18.20;49.73
22649;BME280;11491;41.942;24.220;2022-10-31T09:54:34;90511.16;;;18.16;50.48
22649;BME280;11491;41.942;24.220;2022-10-31T09:57:02;90510.31;;;18.08;50.24
22649;BME280;11491;41.942;24.220;2022-10-31T09:59:31;90508.75;;;18.04;49.55
22649;BME280;11491;41.942;24.220;2022-10-31T10:02:03;90491.69;;;17.96;51.14
22649;BME280;11491;41.942;24.220;2022-10-31T10:04:37;90506.94;;;18.19;50.45
22649;BME280;11491;41.942;24.220;2022-10-31T10:07:12;90495.34;;;18.77;48.71
22649;BME280;11491;41.942;24.220;2022-10-31T10:09:40;90490.69;;;19.83;46.31
22649;BME280;11491;41.942;24.220;2022-10-31T10:12:15;90497.97;;;21.15;43.99
22649;BME280;11491;41.942;24.220;2022-10-31T10:14:54;90475.59;;;21.67;42.15
22649;BME280;11491;41.942;24.220;2022-10-31T10:17:35;90489.34;;;21.35;42.86
22649;BME280;11491;41.942;24.220;2022-10-31T10:20:27;90491.88;;;20.61;43.39
22649;BME280;11491;41.942;24.220;2022-10-31T10:23:11;90489.56;;;20.20;43.21
22649;BME280;11491;41.942;24.220;2022-10-31T10:25:40;90492.63;;;19.86;44.19
22649;BME280;11491;41.942;24.220;2022-10-31T10:28:14;90480.97;;;19.71;45.39
22649;BME280;11491;41.942;24.220;2022-10-31T10:30:46;90466.91;;;19.30;46.67
22649;BME280;11491;41.942;24.220;2022-10-31T10:33:20;90490.47;;;19.11;46.10
22649;BME280;11491;41.942;24.220;2022-10-31T10:35:50;90469.63;;;19.30;46.60
22649;BME280;11491;41.942;24.220;2022-10-31T10:38:23;90482.09;;;19.59;45.72
22649;BME280;11491;41.942;24.220;2022-10-31T10:40:53;90477.06;;;19.62;46.38
22649;BME280;11491;41.942;24.220;2022-10-31T10:43:23;90473.22;;;19.70;46.59
22649;BME280;11491;41.942;24.220;2022-10-31T10:46:03;90460.78;;;19.58;45.05
22649;BME280;11491;41.942;24.220;2022-10-31T10:48:54;90474.81;;;20.03;43.29
22649;BME280;11491;41.942;24.220;2022-10-31T10:51:23;90477.13;;;19.87;44.42
22649;BME280;11491;41.942;24.220;2022-10-31T10:54:09;90481.81;;;20.15;46.56
22649;BME280;11491;41.942;24.220;2022-10-31T10:56:53;90478.59;;;20.99;41.89
22649;BME280;11491;41.942;24.220;2022-10-31T10:59:23;90471.63;;;20.91;42.52
22649;BME280;11491;41.942;24.220;2022-10-31T11:01:51;90472.44;;;20.73;41.82
22649;BME280;11491;41.942;24.220;2022-10-31T11:04:28;90470.44;;;20.99;41.69
22649;BME280;11491;41.942;24.220;2022-10-31T11:07:00;90466.56;;;21.84;41.47
22649;BME280;11491;41.942;24.220;2022-10-31T11:09:28;90446.75;;;21.84;40.21
22649;BME280;11491;41.942;24.220;2022-10-31T11:11:55;90473.81;;;21.32;40.64
22649;BME280;11491;41.942;24.220;2022-10-31T11:14:23;90474.72;;;20.93;41.49
22649;BME280;11491;41.942;24.220;2022-10-31T11:16:54;90468.56;;;20.74;42.92
22649;BME280;11491;41.942;24.220;2022-10-31T11:19:23;90470.34;;;21.27;41.42
22649;BME280;11491;41.942;24.220;2022-10-31T11:21:52;90460.19;;;21.39;39.45
22649;BME280;11491;41.942;24.220;2022-10-31T11:24:20;90465.88;;;20.60;41.21
22649;BME280;11491;41.942;24.220;2022-10-31T11:26:49;90472.50;;;20.09;43.19
22649;BME280;11491;41.942;24.220;2022-10-31T11:29:20;90465.50;;;19.79;44.37
22649;BME280;11491;41.942;24.220;2022-10-31T11:31:50;90470.13;;;19.75;43.82
22649;BME280;11491;41.942;24.220;2022-10-31T11:34:25;90470.91;;;19.79;45.11
22649;BME280;11491;41.942;24.220;2022-10-31T11:36:58;90455.38;;;20.51;43.56
22649;BME280;11491;41.942;24.220;2022-10-31T11:39:28;90463.78;;;21.14;40.80
22649;BME280;11491;41.942;24.220;2022-10-31T11:41:55;90457.75;;;20.60;41.55
22649;BME280;11491;41.942;24.220;2022-10-31T11:44:27;90463.94;;;20.57;43.92
22649;BME280;11491;41.942;24.220;2022-10-31T11:46:57;90463.94;;;20.57;42.34
22649;BME280;11491;41.942;24.220;2022-10-31T11:49:29;90459.31;;;20.18;43.51
22649;BME280;11491;41.942;24.220;2022-10-31T11:52:01;90456.22;;;20.09;44.70
22649;BME280;11491;41.942;24.220;2022-10-31T11:54:30;90462.28;;;20.99;44.35
22649;BME280;11491;41.942;24.220;2022-10-31T11:56:58;90453.69;;;22.44;41.86
22649;BME280;11491;41.942;24.220;2022-10-31T11:59:27;90447.91;;;23.49;38.57
22649;BME280;11491;41.942;24.220;2022-10-31T12:01:56;90453.31;;;24.10;37.60
22649;BME280;11491;41.942;24.220;2022-10-31T12:04:29;90447.72;;;24.17;36.69
22649;BME280;11491;41.942;24.220;2022-10-31T12:06:59;90441.47;;;23.62;36.93
22649;BME280;11491;41.942;24.220;2022-10-31T12:09:27;90420.69;;;22.73;37.95
22649;BME280;11491;41.942;24.220;2022-10-31T12:12:05;90451.50;;;22.25;39.58
22649;BME280;11491;41.942;24.220;2022-10-31T12:14:45;90450.78;;;22.13;40.06
22649;BME280;11491;41.942;24.220;2022-10-31T12:17:18;90448.19;;;21.99;38.49
22649;BME280;11491;41.942;24.220;2022-10-31T12:19:59;90443.47;;;21.44;39.64
22649;BME280;11491;41.942;24.220;2022-10-31T12:22:36;90446.78;;;20.89;40.15
22649;BME280;11491;41.942;24.220;2022-10-31T12:25:21;90452.28;;;20.63;41.56
22649;BME280;11491;41.942;24.220;2022-10-31T12:28:03;90446.88;;;20.38;41.91
22649;BME280;11491;41.942;24.220;2022-10-31T12:30:40;90444.94;;;20.28;42.43
22649;BME280;11491;41.942;24.220;2022-10-31T12:33:26;90454.22;;;20.70;42.31
22649;BME280;11491;41.942;24.220;2022-10-31T12:36:25;90443.59;;;21.15;40.98
22649;BME280;11491;41.942;24.220;2022-10-31T12:39:17;90437.88;;;21.72;40.35
22649;BME280;11491;41.942;24.220;2022-10-31T12:41:51;90452.47;;;22.49;39.89
22649;BME280;11491;41.942;24.220;2022-10-31T12:44:43;90442.69;;;23.31;38.39
22649;BME280;11491;41.942;24.220;2022-10-31T12:47:46;90452.81;;;23.92;35.31
22649;BME280;11491;41.942;24.220;2022-10-31T12:50:27;90453.44;;;24.03;36.93
22649;BME280;11491;41.942;24.220;2022-10-31T12:53:01;90452.50;;;24.13;35.91
22649;BME280;11491;41.942;24.220;2022-10-31T12:55:43;90413.84;;;23.60;37.07
22649;BME280;11491;41.942;24.220;2022-10-31T12:58:22;90447.44;;;23.84;36.02
22649;BME280;11491;41.942;24.220;2022-10-31T13:00:58;90450.88;;;23.27;36.42
22649;BME280;11491;41.942;24.220;2022-10-31T13:03:32;90446.34;;;22.79;37.78
22649;BME280;11491;41.942;24.220;2022-10-31T13:06:05;90453.41;;;22.73;38.65
22649;BME280;11491;41.942;24.220;2022-10-31T13:08:38;90455.41;;;23.07;38.41
22649;BME280;11491;41.942;24.220;2022-10-31T13:11:10;90440.28;;;23.36;37.44
22649;BME280;11491;41.942;24.220;2022-10-31T13:13:42;90451.25;;;23.60;37.54
22649;BME280;11491;41.942;24.220;2022-10-31T13:16:14;90424.53;;;23.48;36.73